Time;durP1;ratioP1;P1;durP2;ratioP2;P2;SDS_P1;SDS_P2;PMS_P1;PMS_P2;Temp;Humidity;BMP_temperature;BMP_pressure;BME280_temperature;BME280_humidity;BME280_pressure;Samples;Min_cycle;Max_cycle;Signal;HPM_P1;HPM_P2
2021/08/08 00:00:12;;;;;;;7.00;2.80;;;;;;;18.78;67.54;98780.44;5135235;27;20683;-55
2021/08/08 00:02:39;;;;;;;6.25;2.85;;;;;;;18.74;67.69;98785.47;5146612;27;20034;-55
2021/08/08 00:05:09;;;;;;;5.43;2.60;;;;;;;18.74;67.59;98785.47;5154082;27;20508;-56
2021/08/08 00:07:36;;;;;;;6.65;2.90;;;;;;;18.77;67.60;98795.69;5148144;27;20419;-56
2021/08/08 00:10:02;;;;;;;6.38;2.28;;;;;;;18.74;67.61;98787.34;5154226;27;20037;-56
2021/08/08 00:12:28;;;;;;;5.47;3.00;;;;;;;18.75;67.50;98795.13;5154219;27;20101;-56
2021/08/08 00:14:54;;;;;;;4.97;2.72;;;;;;;18.76;67.58;98795.94;5153795;27;20049;-55
2021/08/08 00:17:20;;;;;;;3.20;2.03;;;;;;;18.70;67.74;98797.69;5153845;27;20038;-55
2021/08/08 00:19:45;;;;;;;5.93;2.58;;;;;;;18.73;67.52;98794.53;5150079;27;20031;-56
2021/08/08 00:22:11;;;;;;;4.30;2.30;;;;;;;18.70;67.53;98798.50;5154220;27;20050;-55
2021/08/08 00:24:37;;;;;;;4.95;2.15;;;;;;;18.70;67.43;98803.03;5135108;27;20496;-55
2021/08/08 00:27:04;;;;;;;7.03;2.78;;;;;;;18.66;67.49;98794.69;5135663;27;20103;-55
2021/08/08 00:29:29;;;;;;;5.75;2.45;;;;;;;18.64;67.75;98796.78;5135269;27;20030;-56
2021/08/08 00:31:58;;;;;;;4.82;2.40;;;;;;;18.64;67.74;98799.47;5153787;27;20026;-56
2021/08/08 00:34:24;;;;;;;3.80;2.20;;;;;;;18.63;67.74;98803.22;5135404;27;20058;-54
2021/08/08 00:36:52;;;;;;;5.65;2.17;;;;;;;18.63;67.76;98808.56;5133210;27;20377;-58
2021/08/08 00:39:20;;;;;;;6.20;2.50;;;;;;;18.56;67.82;98805.19;5135148;27;20111;-55
2021/08/08 00:41:51;;;;;;;4.25;2.30;;;;;;;18.57;68.02;98810.31;5135485;27;20230;-56
2021/08/08 00:44:17;;;;;;;5.32;2.13;;;;;;;18.56;67.68;98806.00;5114806;27;20377;-55
2021/08/08 00:46:43;;;;;;;6.97;2.50;;;;;;;18.60;67.63;98815.19;5134864;27;20091;-56
2021/08/08 00:49:11;;;;;;;5.85;2.70;;;;;;;18.59;67.61;98813.56;5134778;27;20494;-56
2021/08/08 00:51:39;;;;;;;4.88;2.22;;;;;;;18.58;67.73;98819.16;5135476;27;20065;-56
2021/08/08 00:54:07;;;;;;;3.85;2.10;;;;;;;18.55;67.85;98814.28;5114869;27;20034;-57
2021/08/08 00:56:35;;;;;;;5.25;2.20;;;;;;;18.56;67.84;98815.91;5133738;27;20035;-55
2021/08/08 00:59:01;;;;;;;4.45;2.13;;;;;;;18.55;67.83;98811.59;5134851;27;20051;-55
2021/08/08 01:01:38;;;;;;;4.75;1.92;;;;;;;18.48;67.83;98814.41;5134331;27;20035;-55
2021/08/08 01:04:16;;;;;;;6.05;2.30;;;;;;;18.49;67.88;98818.69;5134839;27;20559;-56
2021/08/08 01:06:51;;;;;;;3.47;1.80;;;;;;;18.51;67.78;98826.50;5135393;27;20527;-55
2021/08/08 01:09:23;;;;;;;4.25;1.98;;;;;;;18.47;68.01;98821.63;5129874;27;20027;-56
2021/08/08 01:11:50;;;;;;;3.47;1.95;;;;;;;18.49;67.88;98816.03;5134975;27;20102;-57
2021/08/08 01:14:18;;;;;;;4.93;1.95;;;;;;;18.47;67.81;98820.81;5135813;27;20037;-55
2021/08/08 01:16:49;;;;;;;5.38;2.72;;;;;;;18.42;67.99;98834.91;5135740;27;20087;-56
2021/08/08 01:19:18;;;;;;;3.25;1.83;;;;;;;18.44;67.82;98830.13;5135964;27;20374;-56
2021/08/08 01:21:47;;;;;;;5.65;2.10;;;;;;;18.42;67.92;98832.22;5135750;27;20062;-55
2021/08/08 01:24:13;;;;;;;5.47;1.88;;;;;;;18.46;67.96;98822.66;5135541;27;20027;-56
2021/08/08 01:26:42;;;;;;;3.10;1.67;;;;;;;18.44;67.88;98826.66;5135372;27;20035;-55
2021/08/08 01:29:08;;;;;;;6.38;2.00;;;;;;;18.39;67.93;98824.69;5135618;27;20034;-55
2021/08/08 01:31:34;;;;;;;3.72;1.80;;;;;;;18.38;68.01;98839.09;5153876;27;20106;-56
2021/08/08 01:34:00;;;;;;;3.42;1.90;;;;;;;18.42;67.92;98832.22;5135433;27;20034;-55
2021/08/08 01:36:26;;;;;;;3.80;1.90;;;;;;;18.40;67.83;98828.16;5152712;27;20062;-55
2021/08/08 01:39:05;;;;;;;4.18;1.90;;;;;;;18.35;68.10;98835.03;5153089;27;20062;-55
2021/08/08 01:41:44;;;;;;;5.18;1.67;;;;;;;18.40;67.78;98828.16;5152619;27;20027;-55
2021/08/08 01:44:12;;;;;;;3.20;1.88;;;;;;;18.39;67.86;98830.03;5151652;27;20042;-55
2021/08/08 01:46:43;;;;;;;5.45;2.05;;;;;;;18.36;67.93;98830.50;5149240;27;20125;-55
2021/08/08 01:49:18;;;;;;;5.07;2.25;;;;;;;18.37;67.93;98826.78;5131126;27;20465;-55
2021/08/08 01:51:44;;;;;;;4.35;1.90;;;;;;;18.29;68.20;98829.81;5131610;27;20034;-55
2021/08/08 01:54:14;;;;;;;4.93;1.90;;;;;;;18.32;68.13;98832.00;5114867;27;20035;-55
2021/08/08 01:56:41;;;;;;;2.92;1.30;;;;;;;18.30;68.07;98839.47;5114503;27;20041;-55
2021/08/08 01:59:07;;;;;;;2.67;1.33;;;;;;;18.33;68.26;98842.47;5114493;27;20464;-55
2021/08/08 02:01:35;;;;;;;4.32;1.60;;;;;;;18.32;68.00;98840.84;5131450;27;20042;-55
2021/08/08 02:04:25;;;;;;;4.97;2.22;;;;;;;18.29;68.24;98844.00;5132394;27;20501;-55
2021/08/08 02:07:10;;;;;;;3.13;1.45;;;;;;;18.27;68.15;98840.75;5146547;27;20034;-55
2021/08/08 02:09:37;;;;;;;4.43;1.92;;;;;;;18.25;68.39;98842.81;5152158;27;20115;-55
2021/08/08 02:12:04;;;;;;;4.88;1.73;;;;;;;18.28;68.11;98846.91;5152091;27;20066;-55
2021/08/08 02:14:31;;;;;;;2.78;1.33;;;;;;;18.21;68.40;98845.16;5152148;27;20599;-55
2021/08/08 02:17:03;;;;;;;3.60;1.48;;;;;;;18.19;68.54;98844.59;5151924;27;20038;-55
2021/08/08 02:19:30;;;;;;;2.67;1.35;;;;;;;18.18;68.46;98851.00;5151960;27;20050;-55
2021/08/08 02:21:59;;;;;;;3.10;1.40;;;;;;;18.18;68.42;98860.88;5153391;27;20368;-55
2021/08/08 02:24:31;;;;;;;2.75;1.50;;;;;;;18.25;68.46;98842.03;5151818;27;20054;-55
2021/08/08 02:27:07;;;;;;;5.90;1.40;;;;;;;18.21;68.36;98861.22;5151675;27;20485;-55
2021/08/08 02:29:33;;;;;;;2.70;1.27;;;;;;;18.19;68.25;98849.94;5153058;27;20038;-55
2021/08/08 02:31:59;;;;;;;5.95;1.60;;;;;;;18.15;68.47;98840.75;5151752;27;20489;-55
2021/08/08 02:34:33;;;;;;;2.67;1.40;;;;;;;18.13;68.55;98856.22;5149517;27;20114;-55
2021/08/08 02:36:59;;;;;;;3.33;1.30;;;;;;;18.14;68.52;98847.13;5117624;27;20476;-55
2021/08/08 02:39:25;;;;;;;3.75;1.52;;;;;;;18.16;68.65;98850.41;5152954;27;20098;-56
2021/08/08 02:41:51;;;;;;;2.60;1.27;;;;;;;18.19;68.39;98857.13;5134519;27;20069;-56
2021/08/08 02:44:17;;;;;;;3.22;1.30;;;;;;;18.19;68.17;98857.13;5134583;27;20079;-55
2021/08/08 02:46:43;;;;;;;3.80;1.42;;;;;;;18.15;68.47;98862.16;5134423;27;20035;-55
2021/08/08 02:49:09;;;;;;;1.95;1.25;;;;;;;18.13;68.53;98861.56;5134443;27;20045;-55
2021/08/08 02:51:35;;;;;;;3.10;1.33;;;;;;;18.10;68.52;98872.69;5134667;27;20043;-56
2021/08/08 02:54:02;;;;;;;2.95;1.85;;;;;;;18.10;68.48;98873.53;5134458;27;20030;-55
2021/08/08 02:56:29;;;;;;;2.97;1.40;;;;;;;18.07;68.55;98876.66;5134149;27;20481;-56
2021/08/08 02:58:55;;;;;;;3.47;1.30;;;;;;;18.11;68.58;98871.63;5120198;27;20046;-55
2021/08/08 03:01:20;;;;;;;3.67;1.40;;;;;;;18.14;68.33;98876.56;5138489;27;20027;-55
2021/08/08 03:03:47;;;;;;;2.88;1.23;;;;;;;18.12;68.57;98878.66;5138524;27;20035;-55
2021/08/08 03:06:14;;;;;;;2.75;1.08;;;;;;;18.11;68.44;98877.00;5145052;27;20114;-55
2021/08/08 03:08:44;;;;;;;3.90;1.10;;;;;;;18.14;68.33;98884.56;5155597;27;20437;-56
2021/08/08 03:11:11;;;;;;;3.67;1.75;;;;;;;18.15;68.37;98880.88;5155547;27;20054;-55
2021/08/08 03:13:39;;;;;;;5.63;1.13;;;;;;;18.08;68.58;98882.81;5156820;27;20023;-55
2021/08/08 03:16:06;;;;;;;3.83;1.38;;;;;;;18.09;68.53;98890.59;5156765;27;20633;-55
2021/08/08 03:18:33;;;;;;;3.92;1.33;;;;;;;18.12;68.52;98892.03;5137942;27;20481;-55
2021/08/08 03:20:59;;;;;;;2.28;0.90;;;;;;;18.08;68.33;98888.16;5155437;27;20038;-55
2021/08/08 03:23:25;;;;;;;3.10;1.05;;;;;;;18.08;68.77;98882.81;5155321;27;20083;-55
2021/08/08 03:25:51;;;;;;;2.72;1.30;;;;;;;18.04;68.60;98889.66;5155049;27;20362;-55
2021/08/08 03:28:17;;;;;;;3.58;1.25;;;;;;;18.08;68.49;98880.94;5156416;27;20039;-55
2021/08/08 03:30:43;;;;;;;2.35;1.45;;;;;;;18.06;68.54;98880.38;5138030;27;20022;-55
2021/08/08 03:33:09;;;;;;;2.78;1.58;;;;;;;18.06;68.48;98891.06;5155131;27;20070;-55
2021/08/08 03:35:35;;;;;;;3.50;1.27;;;;;;;18.03;68.47;98885.38;5144040;27;20049;-55
2021/08/08 03:38:01;;;;;;;5.28;1.60;;;;;;;18.03;68.63;98893.41;5137785;27;20034;-55
2021/08/08 03:40:27;;;;;;;6.07;1.85;;;;;;;18.05;68.52;98885.94;5137728;27;20027;-56
2021/08/08 03:42:54;;;;;;;4.55;1.33;;;;;;;18.07;68.44;98886.53;5137668;27;20027;-55
2021/08/08 03:45:21;;;;;;;3.85;1.40;;;;;;;18.04;68.31;98897.69;5120690;27;20390;-55
2021/08/08 03:47:48;;;;;;;4.13;1.65;;;;;;;18.05;68.54;98893.97;5120750;27;20038;-55
2021/08/08 03:50:14;;;;;;;3.17;1.30;;;;;;;18.02;68.53;98900.59;5138078;27;20508;-55
2021/08/08 03:52:39;;;;;;;6.00;1.77;;;;;;;17.97;68.51;98903.16;5137450;27;20365;-55
2021/08/08 03:55:06;;;;;;;6.47;1.55;;;;;;;18.02;68.62;98905.13;5137769;27;20468;-55
2021/08/08 03:57:32;;;;;;;4.65;1.80;;;;;;;18.01;68.39;98912.34;5137443;27;20027;-55
2021/08/08 04:00:05;;;;;;;4.72;1.92;;;;;;;17.99;68.39;98903.72;5137428;27;20043;-55
2021/08/08 04:02:40;;;;;;;;;;;;;;;17.95;68.50;98899.88;5156433;27;20031;-55
2021/08/08 04:05:08;;;;;;;6.93;1.77;;;;;;;17.93;68.60;98908.13;5137455;27;20292;-55
2021/08/08 04:07:34;;;;;;;6.50;2.28;;;;;;;17.98;68.44;98908.25;5137594;27;20109;-55
2021/08/08 04:10:01;;;;;;;4.95;2.00;;;;;;;17.98;68.25;98905.59;5153606;27;20045;-56
2021/08/08 04:12:26;;;;;;;5.50;2.00;;;;;;;17.98;68.33;98902.13;5154354;27;20034;-55
2021/08/08 04:14:52;;;;;;;4.60;1.80;;;;;;;17.96;68.28;98906.88;5155635;27;20060;-55
2021/08/08 04:17:18;;;;;;;4.55;1.80;;;;;;;17.95;68.29;98900.69;5154139;27;20031;-55
2021/08/08 04:19:44;;;;;;;7.13;2.25;;;;;;;17.96;68.23;98907.66;5155502;27;20422;-55
2021/08/08 04:22:10;;;;;;;5.38;2.28;;;;;;;17.97;68.30;98905.81;5154161;27;20035;-55
2021/08/08 04:24:36;;;;;;;5.05;1.90;;;;;;;17.93;68.39;98913.47;5154010;27;20027;-55
2021/08/08 04:27:02;;;;;;;7.95;2.35;;;;;;;17.97;68.38;98913.84;5155275;27;20397;-55
2021/08/08 04:29:28;;;;;;;6.40;1.70;;;;;;;17.99;68.25;98927.78;5155283;27;20042;-56
2021/08/08 04:31:54;;;;;;;6.00;1.95;;;;;;;18.00;68.19;98928.63;5153958;27;20034;-55
2021/08/08 04:34:20;;;;;;;4.82;2.13;;;;;;;17.95;68.08;98931.97;5153337;27;20067;-55
2021/08/08 04:36:47;;;;;;;5.18;1.90;;;;;;;17.95;68.27;98929.28;5136201;27;20041;-55
2021/08/08 04:39:13;;;;;;;6.72;2.15;;;;;;;17.95;68.18;98930.09;5136917;27;20038;-55
2021/08/08 04:41:40;;;;;;;7.72;3.15;;;;;;;17.93;68.08;98932.19;5136509;27;20118;-55
2021/08/08 04:44:06;;;;;;;7.30;2.22;;;;;;;17.87;68.17;98941.13;5136810;27;20034;-55
2021/08/08 04:46:32;;;;;;;6.22;1.85;;;;;;;17.92;68.05;98935.09;5136316;27;20485;-55
2021/08/08 04:48:57;;;;;;;6.72;2.17;;;;;;;17.89;68.14;98947.06;5136472;27;20035;-55
2021/08/08 04:51:23;;;;;;;5.85;2.22;;;;;;;17.91;68.11;98936.97;5136880;27;20035;-55
2021/08/08 04:53:49;;;;;;;5.68;2.05;;;;;;;17.90;68.10;98939.88;5136340;27;20038;-55
2021/08/08 04:56:15;;;;;;;6.65;2.22;;;;;;;17.91;68.28;98942.31;5136209;27;20515;-55
2021/08/08 04:58:41;;;;;;;11.15;2.78;;;;;;;17.89;68.05;98944.41;5136244;27;20035;-55
2021/08/08 05:01:07;;;;;;;6.50;2.45;;;;;;;17.92;67.96;98945.78;5132402;27;20051;-55
2021/08/08 05:03:34;;;;;;;6.93;2.22;;;;;;;17.94;67.93;98954.41;5132759;27;20596;-55
2021/08/08 05:06:00;;;;;;;8.45;2.85;;;;;;;17.89;67.68;98962.28;5140644;27;20074;-55
2021/08/08 05:08:26;;;;;;;6.80;2.40;;;;;;;17.87;67.93;98962.50;5153179;27;20042;-55
2021/08/08 05:10:51;;;;;;;9.23;2.53;;;;;;;17.87;67.92;98965.19;5135932;27;20031;-55
2021/08/08 05:13:17;;;;;;;7.60;2.42;;;;;;;17.84;68.10;98968.31;5153072;27;20090;-55
2021/08/08 05:15:43;;;;;;;7.95;2.92;;;;;;;17.82;67.88;98973.09;5135863;27;20042;-55
2021/08/08 05:18:09;;;;;;;6.57;2.17;;;;;;;17.83;67.63;98970.19;5153010;27;20103;-55
2021/08/08 05:20:34;;;;;;;7.57;2.65;;;;;;;17.88;68.01;98976.69;5135678;27;20217;-55
2021/08/08 05:23:02;;;;;;;6.72;2.60;;;;;;;17.84;67.94;98973.66;5153024;27;20035;-55
2021/08/08 05:25:27;;;;;;;8.48;2.35;;;;;;;17.83;67.90;98985.41;5153712;27;20043;-55
2021/08/08 05:27:53;;;;;;;9.50;2.65;;;;;;;17.84;67.73;98976.34;5153172;27;20041;-55
2021/08/08 05:30:19;;;;;;;7.00;2.40;;;;;;;17.84;67.72;98977.16;5154209;27;20466;-55
2021/08/08 05:32:44;;;;;;;7.50;2.67;;;;;;;17.83;67.50;98986.22;5135446;27;20038;-55
2021/08/08 05:35:11;;;;;;;6.60;2.88;;;;;;;17.83;67.54;98978.22;5145079;27;20038;-55
2021/08/08 05:37:37;;;;;;;5.85;2.25;;;;;;;17.81;67.56;98984.81;5118475;27;20037;-55
2021/08/08 05:40:07;;;;;;;7.38;3.00;;;;;;;17.79;67.83;98985.03;5135557;27;20472;-55
2021/08/08 05:42:45;;;;;;;7.70;2.67;;;;;;;17.84;67.50;98993.19;5135281;27;20046;-55
2021/08/08 05:45:11;;;;;;;7.57;2.40;;;;;;;17.87;67.47;99004.47;5135265;27;20027;-55
2021/08/08 05:47:37;;;;;;;11.35;3.05;;;;;;;17.81;67.41;99006.19;5135171;27;20031;-55
2021/08/08 05:50:03;;;;;;;6.53;2.55;;;;;;;17.81;67.43;99004.34;5135631;27;20088;-55
2021/08/08 05:52:29;;;;;;;6.18;2.40;;;;;;;17.82;67.27;99003.28;5135144;27;20442;-55
2021/08/08 05:54:54;;;;;;;5.22;2.30;;;;;;;17.78;67.25;99014.66;5153804;27;20038;-55
2021/08/08 05:57:20;;;;;;;9.13;2.55;;;;;;;17.81;67.29;99019.56;5135071;27;20038;-55
2021/08/08 05:59:47;;;;;;;8.38;3.03;;;;;;;17.75;67.05;99025.81;5135143;27;20035;-55
2021/08/08 06:02:12;;;;;;;10.85;2.47;;;;;;;17.78;66.99;99017.34;5131270;27;20088;-55
2021/08/08 06:04:38;;;;;;;5.95;2.55;;;;;;;17.74;67.17;99027.69;5131655;27;20042;-55
2021/08/08 06:07:04;;;;;;;6.40;2.92;;;;;;;17.69;67.06;99028.38;5150164;27;20557;-55
2021/08/08 06:09:30;;;;;;;7.05;2.25;;;;;;;17.70;67.21;99029.97;5152359;27;20374;-55
2021/08/08 06:11:56;;;;;;;8.45;2.85;;;;;;;17.73;67.10;99034.03;5152179;27;20034;-55
2021/08/08 06:14:21;;;;;;;5.95;2.97;;;;;;;17.72;66.90;99037.78;5153303;27;20031;-55
2021/08/08 06:16:47;;;;;;;6.60;2.28;;;;;;;17.78;66.91;99042.22;5151994;27;20042;-55
2021/08/08 06:19:13;;;;;;;4.97;2.00;;;;;;;17.74;66.67;99033.03;5153297;27;20033;-55
2021/08/08 06:21:39;;;;;;;11.65;2.45;;;;;;;17.78;66.84;99047.56;5151883;27;20067;-55
2021/08/08 06:24:05;;;;;;;7.03;2.38;;;;;;;17.78;66.90;99049.41;5152030;27;20069;-55
2021/08/08 06:26:33;;;;;;;6.78;2.45;;;;;;;17.80;66.63;99050.00;5152791;27;20053;-55
2021/08/08 06:28:58;;;;;;;5.93;2.05;;;;;;;17.73;66.48;99053.59;5152111;27;20085;-55
2021/08/08 06:31:24;;;;;;;7.13;2.13;;;;;;;17.76;66.81;99046.97;5151867;27;20058;-55
2021/08/08 06:33:51;;;;;;;5.90;2.65;;;;;;;17.75;66.63;99056.03;5151295;27;20038;-55
2021/08/08 06:36:16;;;;;;;8.32;2.33;;;;;;;17.74;66.63;99051.72;5134651;27;20031;-55
2021/08/08 06:38:42;;;;;;;10.80;2.35;;;;;;;17.78;66.61;99070.78;5153204;27;20392;-55
2021/08/08 06:41:08;;;;;;;8.25;2.28;;;;;;;17.75;66.61;99063.22;5134463;27;20038;-55
2021/08/08 06:43:34;;;;;;;6.95;2.28;;;;;;;17.72;66.52;99068.00;5134389;27;20034;-55
2021/08/08 06:46:00;;;;;;;8.20;2.90;;;;;;;17.76;66.37;99072.88;5134249;27;20031;-54
2021/08/08 06:48:26;;;;;;;6.78;2.78;;;;;;;17.76;66.31;99076.34;5134413;27;20038;-55
2021/08/08 06:50:53;;;;;;;6.38;2.00;;;;;;;17.72;66.35;99072.50;5134891;27;20026;-55
2021/08/08 06:53:19;;;;;;;8.70;2.22;;;;;;;17.74;66.51;99083.81;5152787;27;20064;-55
2021/08/08 06:55:44;;;;;;;7.55;2.40;;;;;;;17.74;66.51;99083.81;5134644;27;20053;-55
2021/08/08 06:58:10;;;;;;;6.10;2.22;;;;;;;17.67;66.08;99083.06;5152955;27;20489;-55
2021/08/08 07:00:36;;;;;;;6.57;2.15;;;;;;;17.72;66.17;99085.88;5134026;27;20030;-55
2021/08/08 07:03:02;;;;;;;8.52;2.60;;;;;;;17.65;66.34;99090.47;5134155;27;20030;-55
2021/08/08 07:05:28;;;;;;;6.32;1.92;;;;;;;17.64;66.37;99097.69;5132771;27;20034;-55
2021/08/08 07:07:54;;;;;;;6.70;2.00;;;;;;;17.65;66.45;99101.97;5149322;27;20048;-55
2021/08/08 07:10:20;;;;;;;6.05;2.22;;;;;;;17.65;66.11;99101.97;5149583;27;20027;-55
2021/08/08 07:12:45;;;;;;;7.20;1.85;;;;;;;17.64;65.87;99103.03;5149423;27;20061;-55
2021/08/08 07:15:11;;;;;;;5.55;1.83;;;;;;;17.63;66.08;99100.59;5149360;27;20022;-55
2021/08/08 07:17:38;;;;;;;6.82;2.40;;;;;;;17.67;66.04;99102.59;5132493;27;20031;-59
2021/08/08 07:20:06;;;;;;;4.10;1.65;;;;;;;17.67;66.54;99105.25;5127699;27;20041;-58
2021/08/08 07:22:31;;;;;;;6.55;2.47;;;;;;;17.72;67.15;99101.91;5129774;28;20039;-59
2021/08/08 07:24:57;;;;;;;6.82;2.03;;;;;;;17.75;66.90;99112.16;5129699;28;20040;-63
2021/08/08 07:27:24;;;;;;;11.13;1.63;;;;;;;17.84;66.73;99107.28;5129490;28;20445;-59
2021/08/08 07:29:50;;;;;;;7.55;2.22;;;;;;;17.85;66.98;99107.06;5129472;28;20031;-56
2021/08/08 07:32:16;;;;;;;9.77;2.10;;;;;;;17.84;67.01;99118.81;5142060;27;20034;-55
2021/08/08 07:34:41;;;;;;;7.75;2.03;;;;;;;17.84;66.45;99113.47;5129966;28;20088;-55
2021/08/08 07:37:08;;;;;;;5.47;1.70;;;;;;;17.83;66.47;99111.84;5130954;27;20149;-55
2021/08/08 07:39:36;;;;;;;6.88;1.58;;;;;;;17.85;66.30;99116.97;5130163;27;20039;-55
2021/08/08 07:42:03;;;;;;;6.85;1.80;;;;;;;17.82;65.87;99114.75;5128211;27;20448;-55
2021/08/08 07:44:29;;;;;;;4.60;1.75;;;;;;;17.83;65.86;99114.50;5133869;27;20535;-55
2021/08/08 07:46:55;;;;;;;6.15;2.03;;;;;;;17.81;65.76;99119.25;5136024;27;20043;-55
2021/08/08 07:49:21;;;;;;;8.18;1.60;;;;;;;17.80;65.49;99114.13;5136176;27;20037;-55
2021/08/08 07:51:47;;;;;;;6.88;1.80;;;;;;;17.80;65.48;99125.66;5137677;27;20437;-55
2021/08/08 07:54:13;;;;;;;5.13;1.77;;;;;;;17.81;65.47;99127.28;5137609;27;20046;-55
2021/08/08 07:56:39;;;;;;;8.05;1.90;;;;;;;17.81;65.35;99126.44;5120118;27;20037;-55
2021/08/08 07:59:07;;;;;;;5.68;1.63;;;;;;;17.80;65.35;99131.00;5137422;27;20041;-55
2021/08/08 08:01:33;;;;;;;4.00;1.40;;;;;;;17.79;64.91;99136.56;5134921;27;20027;-55
2021/08/08 08:03:59;;;;;;;4.80;1.98;;;;;;;17.78;64.97;99132.25;5133594;27;20025;-55
2021/08/08 08:06:25;;;;;;;6.18;2.20;;;;;;;17.78;64.71;99137.59;5134407;27;20077;-55
2021/08/08 08:08:51;;;;;;;5.10;1.65;;;;;;;17.80;64.78;99144.38;5133017;27;20031;-55
2021/08/08 08:11:17;;;;;;;4.93;1.50;;;;;;;17.81;64.89;99143.31;5118921;27;20035;-55
2021/08/08 08:13:43;;;;;;;7.30;1.92;;;;;;;17.81;64.80;99148.66;5136646;27;20066;-55
2021/08/08 08:16:09;;;;;;;4.68;1.38;;;;;;;17.81;64.96;99143.31;5135948;27;20043;-55
2021/08/08 08:18:35;;;;;;;5.55;1.80;;;;;;;17.81;64.70;99145.97;5136450;27;20034;-55
2021/08/08 08:21:01;;;;;;;3.35;1.30;;;;;;;17.80;64.40;99147.03;5154535;27;20033;-55
2021/08/08 08:23:26;;;;;;;4.53;1.63;;;;;;;17.79;64.60;99147.25;5135619;27;20042;-55
2021/08/08 08:25:52;;;;;;;9.10;1.63;;;;;;;17.79;64.32;99150.72;5155214;27;20508;-55
2021/08/08 08:28:18;;;;;;;4.65;1.63;;;;;;;17.75;64.13;99154.91;5136761;27;20047;-54
2021/08/08 08:30:44;;;;;;;8.57;1.60;;;;;;;17.75;64.36;99154.91;5155341;27;20318;-54
2021/08/08 08:33:10;;;;;;;5.10;1.60;;;;;;;17.77;64.55;99168.88;5119548;27;20062;-54
2021/08/08 08:35:36;;;;;;;4.93;1.50;;;;;;;17.79;64.66;99172.09;5155049;27;20042;-55
2021/08/08 08:38:02;;;;;;;5.85;1.60;;;;;;;17.76;65.02;99167.22;5136605;27;20026;-55
2021/08/08 08:40:30;;;;;;;6.40;1.50;;;;;;;17.79;65.05;99165.97;5119466;27;20488;-55
2021/08/08 08:42:59;;;;;;;7.68;1.92;;;;;;;17.80;64.66;99168.41;5136556;27;20038;-55
2021/08/08 08:45:25;;;;;;;5.72;1.50;;;;;;;17.80;64.72;99168.41;5136795;27;20034;-55
2021/08/08 08:47:52;;;;;;;8.20;2.22;;;;;;;17.81;64.97;99178.06;5136367;27;20503;-55
2021/08/08 08:50:21;;;;;;;3.00;1.45;;;;;;;17.80;65.11;99179.09;5137070;27;20096;-55
2021/08/08 08:52:47;;;;;;;4.95;1.65;;;;;;;17.81;65.06;99180.72;5136342;27;20519;-55
2021/08/08 08:55:14;;;;;;;5.93;1.63;;;;;;;17.81;64.86;99175.38;5136088;27;20035;-54
2021/08/08 08:57:41;;;;;;;7.10;2.15;;;;;;;17.81;65.03;99187.91;5119200;27;20403;-55
2021/08/08 09:00:09;;;;;;;4.43;1.40;;;;;;;17.80;65.46;99188.97;5136286;27;20031;-55
2021/08/08 09:02:38;;;;;;;4.15;1.25;;;;;;;17.82;65.11;99197.59;5136033;27;20030;-55
2021/08/08 09:05:05;;;;;;;4.30;1.30;;;;;;;17.85;64.92;99197.16;5154582;27;20027;-55
2021/08/08 09:07:31;;;;;;;6.30;1.73;;;;;;;17.85;64.91;99197.16;5135946;27;20069;-55
2021/08/08 09:09:57;;;;;;;8.40;1.90;;;;;;;17.84;64.63;99198.16;5154597;27;20082;-55
2021/08/08 09:12:29;;;;;;;7.10;1.65;;;;;;;17.84;65.33;99198.16;5135979;27;20034;-54
2021/08/08 09:15:01;;;;;;;4.07;1.25;;;;;;;17.83;65.23;99200.03;5136035;27;20544;-55
2021/08/08 09:17:29;;;;;;;5.60;1.83;;;;;;;17.82;64.91;99203.72;5135853;27;20141;-55
2021/08/08 09:20:03;;;;;;;7.20;2.05;;;;;;;17.84;64.43;99198.16;5154716;27;20369;-54
2021/08/08 09:22:30;;;;;;;6.72;1.67;;;;;;;17.84;64.93;99203.50;5135768;27;20069;-55
2021/08/08 09:24:57;;;;;;;7.72;1.45;;;;;;;17.84;65.34;99200.84;5154082;27;20078;-54
2021/08/08 09:27:35;;;;;;;3.95;1.27;;;;;;;17.84;65.04;99207.00;5135448;27;20473;-55
2021/08/08 09:30:03;;;;;;;4.40;1.30;;;;;;;17.84;65.53;99207.00;5135727;27;20035;-54
2021/08/08 09:32:33;;;;;;;4.57;1.48;;;;;;;17.85;65.58;99208.63;5135051;27;20031;-54
2021/08/08 09:35:20;;;;;;;4.03;1.20;;;;;;;17.85;65.32;99205.16;5140345;27;20031;-54
2021/08/08 09:38:03;;;;;;;6.20;1.67;;;;;;;17.88;64.81;99207.38;5153194;27;20035;-54
2021/08/08 09:40:31;;;;;;;4.57;1.92;;;;;;;17.89;65.26;99205.50;5153358;27;20031;-55
2021/08/08 09:42:58;;;;;;;6.22;1.73;;;;;;;17.89;65.52;99202.84;5152709;27;20400;-55
2021/08/08 09:45:41;;;;;;;5.82;1.70;;;;;;;17.89;65.23;99209.00;5134692;27;20030;-54
2021/08/08 09:48:11;;;;;;;6.50;1.55;;;;;;;17.92;64.90;99211.22;5153025;27;20030;-55
2021/08/08 09:50:38;;;;;;;9.02;1.80;;;;;;;17.90;65.37;99209.84;5153972;27;20065;-54
2021/08/08 09:53:06;;;;;;;6.03;1.80;;;;;;;17.92;64.61;99205.06;5152662;27;20110;-55
2021/08/08 09:55:35;;;;;;;7.35;1.80;;;;;;;17.91;64.44;99212.28;5153114;27;20038;-55
2021/08/08 09:58:02;;;;;;;8.50;1.58;;;;;;;17.92;64.75;99211.22;5134584;27;20038;-55
2021/08/08 10:00:36;;;;;;;5.43;1.50;;;;;;;17.94;64.51;99203.81;5152996;27;20075;-55
2021/08/08 10:03:03;;;;;;;6.00;1.85;;;;;;;17.95;64.30;99215.31;5134021;27;20046;-55
2021/08/08 10:05:31;;;;;;;4.72;1.60;;;;;;;17.96;64.72;99216.97;5151525;27;20034;-55
2021/08/08 10:07:59;;;;;;;5.45;1.70;;;;;;;17.96;64.69;99217.75;5151399;27;20034;-55
2021/08/08 10:10:25;;;;;;;4.95;1.45;;;;;;;17.98;65.12;99212.22;5132238;27;20039;-55
2021/08/08 10:13:09;;;;;;;6.68;1.42;;;;;;;17.96;64.11;99220.44;5131882;27;20087;-55
2021/08/08 10:15:42;;;;;;;5.13;1.65;;;;;;;17.99;65.25;99219.19;5153061;27;20042;-55
2021/08/08 10:18:10;;;;;;;4.43;1.58;;;;;;;18.00;64.76;99220.00;5152273;27;20042;-55
2021/08/08 10:20:36;;;;;;;5.93;1.83;;;;;;;17.98;63.91;99231.72;5152827;27;20038;-55
2021/08/08 10:23:03;;;;;;;6.45;1.70;;;;;;;17.99;64.83;99221.84;5152161;27;20054;-55
2021/08/08 10:25:29;;;;;;;4.60;1.70;;;;;;;18.00;65.05;99225.34;5152389;27;20061;-55
2021/08/08 10:27:56;;;;;;;7.68;1.40;;;;;;;18.04;64.52;99231.88;5152122;27;20022;-55
2021/08/08 10:30:22;;;;;;;7.47;1.38;;;;;;;18.04;64.39;99229.19;5152748;27;20423;-56
2021/08/08 10:32:48;;;;;;;6.43;1.48;;;;;;;18.03;64.67;99231.06;5152259;27;20114;-55
2021/08/08 10:35:17;;;;;;;5.28;1.85;;;;;;;18.06;64.19;99237.81;5152198;27;20501;-55
2021/08/08 10:37:44;;;;;;;5.03;1.25;;;;;;;18.08;63.68;99233.06;5152493;27;20519;-55
2021/08/08 10:40:11;;;;;;;3.88;1.30;;;;;;;18.06;63.87;99237.81;5152948;27;20018;-55
2021/08/08 10:42:41;;;;;;;3.40;1.08;;;;;;;18.08;63.60;99236.56;5152205;27;20035;-55
2021/08/08 10:45:08;;;;;;;5.57;1.33;;;;;;;18.10;64.32;99245.19;5150885;27;20038;-55
2021/08/08 10:47:34;;;;;;;10.73;1.77;;;;;;;18.12;63.86;99230.78;5151028;27;20496;-55
2021/08/08 10:50:16;;;;;;;3.50;1.10;;;;;;;18.12;63.65;99236.97;5152733;27;20027;-53
2021/08/08 10:52:44;;;;;;;5.53;1.90;;;;;;;18.14;63.79;99242.88;5152152;27;20103;-54
2021/08/08 10:55:27;;;;;;;4.22;1.42;;;;;;;18.16;63.76;99242.66;5151863;27;20050;-54
2021/08/08 10:57:53;;;;;;;4.45;1.40;;;;;;;18.16;63.52;99248.00;5152201;27;20034;-54
2021/08/08 11:00:19;;;;;;;5.20;1.63;;;;;;;18.18;63.59;99251.28;5152225;27;20102;-54
2021/08/08 11:02:45;;;;;;;3.95;1.00;;;;;;;18.17;63.83;99253.13;5152074;27;20038;-54
2021/08/08 11:05:18;;;;;;;4.45;1.27;;;;;;;18.19;63.72;99256.41;5151857;27;20056;-55
2021/08/08 11:07:45;;;;;;;7.07;2.60;;;;;;;18.22;63.63;99244.44;5151882;27;20544;-54
2021/08/08 11:10:23;;;;;;;19.35;5.50;;;;;;;18.25;63.38;99249.31;5152091;27;20038;-53
2021/08/08 11:12:49;;;;;;;30.83;10.23;;;;;;;18.30;63.07;99254.81;5152001;27;20122;-54
2021/08/08 11:15:15;;;;;;;44.72;14.32;;;;;;;18.30;63.32;99254.81;5151784;27;20520;-54
2021/08/08 11:17:42;;;;;;;68.80;21.90;;;;;;;18.33;63.20;99254.38;5151282;27;20042;-54
2021/08/08 11:20:08;;;;;;;74.00;27.23;;;;;;;18.35;63.24;99254.97;5147050;27;20091;-54
2021/08/08 11:22:34;;;;;;;68.07;28.75;;;;;;;18.38;63.35;99263.59;5155900;27;20053;-54
2021/08/08 11:25:04;;;;;;;77.82;30.58;;;;;;;18.40;63.08;99251.63;5155409;27;20038;-54
2021/08/08 11:27:35;;;;;;;77.47;34.45;;;;;;;18.42;63.17;99257.56;5155703;27;20072;-54
2021/08/08 11:30:08;;;;;;;84.45;37.45;;;;;;;18.43;63.58;99271.75;5175421;27;20034;-55
2021/08/08 11:32:35;;;;;;;93.68;39.00;;;;;;;18.45;63.88;99269.66;5176961;27;20069;-54